createdAt,value
2018-03-16T00:02:25.138Z,7.37
2018-03-16T00:04:53.442Z,8.07
2018-03-16T00:07:23.722Z,7.28
2018-03-16T00:09:52.009Z,8.10
2018-03-16T00:12:20.282Z,8.57
2018-03-16T00:14:48.560Z,9.10
2018-03-16T00:17:17.578Z,8.48
2018-03-16T00:19:45.858Z,8.23
2018-03-16T00:22:17.954Z,9.97
2018-03-16T00:24:46.998Z,7.07
2018-03-16T00:27:15.286Z,9.70
2018-03-16T00:29:44.362Z,10.52
2018-03-16T00:32:12.659Z,8.77
2018-03-16T00:34:40.959Z,8.43
2018-03-16T00:37:09.250Z,7.87
2018-03-16T00:39:37.729Z,8.67
2018-03-16T00:42:06.027Z,7.27
2018-03-16T00:44:35.117Z,7.93
2018-03-16T00:47:03.414Z,7.53
2018-03-16T00:49:31.692Z,8.00
2018-03-16T00:51:59.973Z,7.90
2018-03-16T00:54:28.254Z,7.00
2018-03-16T00:56:56.550Z,6.53
2018-03-16T00:59:25.595Z,7.87
2018-03-16T01:01:54.029Z,8.07
2018-03-16T01:04:23.058Z,7.97
2018-03-16T01:06:51.321Z,7.07
2018-03-16T01:09:20.366Z,8.57
2018-03-16T01:11:48.639Z,7.53
2018-03-16T01:14:16.916Z,8.60
2018-03-16T01:16:45.198Z,8.40
2018-03-16T01:19:13.474Z,9.17
2018-03-16T01:21:42.245Z,7.23
2018-03-16T01:24:10.522Z,6.83
2018-03-16T01:26:38.802Z,8.50
2018-03-16T01:29:07.074Z,6.57
2018-03-16T01:31:35.374Z,5.35
2018-03-16T01:34:03.646Z,6.17
2018-03-16T01:36:31.927Z,6.12
2018-03-16T01:39:00.210Z,6.47
2018-03-16T01:41:28.492Z,6.68
2018-03-16T01:43:56.773Z,9.47
2018-03-16T01:46:25.042Z,6.30
2018-03-16T01:48:53.328Z,6.87
2018-03-16T01:51:21.622Z,6.27
2018-03-16T01:53:49.899Z,6.10
2018-03-16T01:56:18.190Z,6.22
2018-03-16T01:58:46.478Z,6.80
2018-03-16T02:01:14.745Z,7.35
2018-03-16T02:03:43.030Z,7.00
2018-03-16T02:06:11.298Z,6.90
2018-03-16T02:08:39.566Z,7.27
2018-03-16T02:11:07.850Z,7.80
2018-03-16T02:13:36.114Z,7.67
2018-03-16T02:16:05.163Z,8.10
2018-03-16T02:18:33.443Z,7.93
2018-03-16T02:21:01.726Z,8.43
2018-03-16T02:23:30.909Z,7.94
2018-03-16T02:25:59.193Z,8.00
2018-03-16T02:28:27.478Z,8.33
2018-03-16T02:30:55.767Z,7.87
2018-03-16T02:33:24.038Z,8.70
2018-03-16T02:35:52.324Z,7.57
2018-03-16T02:38:20.586Z,6.28
2018-03-16T02:40:48.873Z,6.73
2018-03-16T02:43:17.168Z,6.07
2018-03-16T02:45:45.436Z,5.63
2018-03-16T02:48:13.720Z,6.07
2018-03-16T02:50:42.003Z,6.47
2018-03-16T02:53:10.286Z,6.30
2018-03-16T02:55:38.575Z,6.40
2018-03-16T02:58:06.857Z,5.83
2018-03-16T03:00:35.132Z,6.30
2018-03-16T03:03:03.410Z,6.10
2018-03-16T03:05:31.681Z,6.32
2018-03-16T03:07:59.969Z,5.75
2018-03-16T03:10:28.252Z,5.80
2018-03-16T03:12:56.522Z,6.63
2018-03-16T03:15:24.802Z,6.10
2018-03-16T03:17:53.087Z,6.30
2018-03-16T03:20:21.365Z,5.57
2018-03-16T03:22:49.639Z,6.45
2018-03-16T03:25:17.916Z,7.93
2018-03-16T03:27:46.245Z,6.23
2018-03-16T03:30:14.526Z,6.60
2018-03-16T03:32:42.801Z,5.70
2018-03-16T03:35:11.078Z,5.83
2018-03-16T03:37:39.344Z,5.80
2018-03-16T03:40:07.627Z,5.80
2018-03-16T03:42:35.898Z,6.50
2018-03-16T03:45:04.178Z,6.07
2018-03-16T03:47:32.445Z,5.47
2018-03-16T03:50:00.735Z,5.68
2018-03-16T03:52:29.013Z,5.87
2018-03-16T03:54:57.289Z,6.23
2018-03-16T03:57:25.593Z,5.78
2018-03-16T03:59:53.858Z,5.75
2018-03-16T04:02:22.121Z,5.30
2018-03-16T04:04:50.406Z,5.70
2018-03-16T04:07:18.687Z,6.33
2018-03-16T04:09:46.962Z,6.37
2018-03-16T04:12:15.241Z,5.22
2018-03-16T04:14:44.288Z,5.20
2018-03-16T04:17:12.552Z,5.40
2018-03-16T04:19:40.819Z,4.80
2018-03-16T04:22:09.110Z,4.63
2018-03-16T04:24:37.377Z,4.53
2018-03-16T04:27:06.896Z,4.87
2018-03-16T04:29:35.163Z,4.32
2018-03-16T04:32:03.448Z,4.87
2018-03-16T04:34:31.722Z,5.20
2018-03-16T04:36:59.994Z,5.60
2018-03-16T04:39:28.640Z,4.75
2018-03-16T04:41:56.910Z,5.00
2018-03-16T04:44:25.183Z,5.47
2018-03-16T04:46:53.457Z,5.73
2018-03-16T04:49:21.740Z,5.33
2018-03-16T04:51:50.021Z,4.70
2018-03-16T04:54:18.308Z,4.67
2018-03-16T04:56:46.582Z,4.47
2018-03-16T04:59:14.878Z,4.00
2018-03-16T05:01:43.316Z,4.20
2018-03-16T05:04:11.585Z,4.20
2018-03-16T05:06:40.622Z,4.50
2018-03-16T05:09:08.898Z,4.33
2018-03-16T05:11:37.180Z,5.03
2018-03-16T05:14:05.453Z,4.57
2018-03-16T05:16:33.741Z,5.53
2018-03-16T05:19:02.027Z,5.28
2018-03-16T05:21:30.294Z,5.27
2018-03-16T05:23:58.575Z,5.00
2018-03-16T05:26:26.842Z,5.40
2018-03-16T05:28:55.239Z,4.40
2018-03-16T05:31:23.531Z,4.40
2018-03-16T05:33:51.803Z,4.07
2018-03-16T05:36:20.078Z,4.50
2018-03-16T05:38:48.366Z,4.37
2018-03-16T05:41:16.631Z,4.43
2018-03-16T05:43:44.910Z,3.97
2018-03-16T05:46:13.198Z,4.63
2018-03-16T05:48:41.469Z,5.63
2018-03-16T05:51:09.749Z,5.00
2018-03-16T05:53:38.040Z,3.75
2018-03-16T05:56:06.309Z,4.47
2018-03-16T05:58:34.594Z,5.40
2018-03-16T06:01:02.862Z,4.50
2018-03-16T06:03:31.924Z,3.60
2018-03-16T06:06:00.215Z,3.65
2018-03-16T06:08:28.486Z,3.70
2018-03-16T06:10:56.766Z,3.43
2018-03-16T06:13:25.038Z,3.63
2018-03-16T06:15:53.317Z,3.67
2018-03-16T06:18:21.602Z,4.40
2018-03-16T06:20:49.869Z,3.37
2018-03-16T06:23:18.138Z,3.70
2018-03-16T06:25:46.417Z,3.72
2018-03-16T06:28:14.693Z,4.37
2018-03-16T06:30:43.222Z,4.90
2018-03-16T06:33:11.512Z,4.43
2018-03-16T06:35:39.784Z,3.58
2018-03-16T06:38:08.066Z,3.97
2018-03-16T06:40:36.928Z,3.50
2018-03-16T06:43:05.198Z,2.83
2018-03-16T06:45:33.470Z,2.70
2018-03-16T06:48:01.754Z,2.60
2018-03-16T06:50:30.022Z,2.80
2018-03-16T06:52:58.306Z,2.93
2018-03-16T06:55:26.593Z,2.70
2018-03-16T06:57:54.862Z,3.00
2018-03-16T07:00:23.908Z,2.97
2018-03-16T07:02:52.208Z,3.00
2018-03-16T07:05:20.474Z,2.90
2018-03-16T07:07:48.766Z,2.57
2018-03-16T07:10:17.045Z,2.30
2018-03-16T07:12:45.314Z,2.33
2018-03-16T07:15:31.194Z,2.10
2018-03-16T07:17:59.546Z,1.70
2018-03-16T07:20:27.764Z,2.10
2018-03-16T07:22:56.050Z,1.80
2018-03-16T07:25:24.598Z,2.00
2018-03-16T07:27:52.889Z,2.07
2018-03-16T07:30:21.185Z,2.70
2018-03-16T07:32:49.478Z,2.07
2018-03-16T07:35:17.762Z,9.43
2018-03-16T07:37:46.062Z,5.00
2018-03-16T07:40:14.350Z,2.93
2018-03-16T07:42:43.390Z,3.20
2018-03-16T07:45:11.694Z,3.87
2018-03-16T07:47:39.981Z,3.10
2018-03-16T07:50:08.261Z,3.90
2018-03-16T07:52:36.575Z,2.83
2018-03-16T07:57:48.054Z,3.40
2018-03-16T08:00:16.334Z,2.70
2018-03-16T08:02:44.610Z,2.37
2018-03-16T08:05:12.906Z,2.30
2018-03-16T08:07:41.181Z,2.50
2018-03-16T08:10:10.243Z,2.40
2018-03-16T08:12:38.546Z,2.30
2018-03-16T08:15:06.828Z,2.50
2018-03-16T08:17:35.109Z,2.37
2018-03-16T08:20:03.418Z,2.42
2018-03-16T08:22:32.465Z,2.10
2018-03-16T08:25:00.748Z,2.23
2018-03-16T08:27:29.047Z,2.07
2018-03-16T08:29:57.326Z,1.83
2018-03-16T08:32:25.607Z,1.77
2018-03-16T08:34:53.922Z,1.83
2018-03-16T08:37:22.983Z,2.20
2018-03-16T08:39:51.283Z,1.67
2018-03-16T08:42:19.576Z,1.73
2018-03-16T08:44:47.879Z,1.70
2018-03-16T08:47:16.157Z,1.52
2018-03-16T08:49:44.453Z,1.42
2018-03-16T08:52:12.746Z,1.50
2018-03-16T08:54:41.293Z,1.60
2018-03-16T08:57:10.340Z,1.43
2018-03-16T08:59:38.630Z,1.00
2018-03-16T09:02:06.924Z,1.27
2018-03-16T09:04:35.241Z,1.25
2018-03-16T09:07:04.278Z,1.40
2018-03-16T09:09:32.571Z,1.30
2018-03-16T09:12:00.850Z,1.30
2018-03-16T09:14:29.133Z,1.33
2018-03-16T09:16:57.421Z,0.90
2018-03-16T09:19:26.834Z,1.50
2018-03-16T09:21:55.123Z,1.10
2018-03-16T09:24:23.415Z,1.10
2018-03-16T09:26:51.699Z,0.80
2018-03-16T09:29:20.551Z,1.00
2018-03-16T09:31:48.847Z,0.83
2018-03-16T09:34:17.127Z,1.10
2018-03-16T09:36:45.426Z,1.00
2018-03-16T09:39:13.735Z,1.08
2018-03-16T09:41:42.029Z,1.00
2018-03-16T09:44:10.312Z,1.10
2018-03-16T09:46:38.703Z,0.70
2018-03-16T09:49:06.999Z,0.85
2018-03-16T09:51:35.274Z,1.00
2018-03-16T09:54:03.559Z,0.97
2018-03-16T09:56:31.858Z,1.00
2018-03-16T09:59:00.138Z,1.10
2018-03-16T10:01:28.418Z,1.20
2018-03-16T10:03:56.711Z,1.10
2018-03-16T10:06:24.990Z,1.30
2018-03-16T10:08:53.297Z,1.10
2018-03-16T10:11:22.373Z,1.30
2018-03-16T10:13:50.642Z,1.30
2018-03-16T10:16:18.930Z,2.23
2018-03-16T10:18:47.218Z,2.13
2018-03-16T10:21:15.493Z,1.30
2018-03-16T10:23:43.789Z,2.20
2018-03-16T10:26:12.073Z,1.60
2018-03-16T10:28:40.356Z,1.43
2018-03-16T10:31:09.953Z,1.52
2018-03-16T10:33:38.235Z,1.40
2018-03-16T10:36:07.290Z,1.10
2018-03-16T10:38:35.573Z,1.50
2018-03-16T10:41:03.879Z,1.40
2018-03-16T10:43:32.173Z,1.33
2018-03-16T10:46:00.486Z,1.20
2018-03-16T10:48:29.540Z,2.15
2018-03-16T10:50:57.823Z,1.37
2018-03-16T10:53:26.127Z,1.53
2018-03-16T10:55:54.562Z,1.50
2018-03-16T10:58:22.846Z,1.23
2018-03-16T11:00:56.711Z,1.40
2018-03-16T11:03:25.770Z,1.30
2018-03-16T11:05:54.975Z,2.20
2018-03-16T11:08:33.310Z,1.73
2018-03-16T11:11:01.590Z,1.80
2018-03-16T11:13:29.894Z,1.58
2018-03-16T11:15:58.194Z,1.55
2018-03-16T11:18:26.495Z,1.40
2018-03-16T11:20:54.770Z,1.60
2018-03-16T11:23:23.062Z,1.63
2018-03-16T11:25:51.350Z,2.10
2018-03-16T11:28:19.637Z,1.50
2018-03-16T11:30:47.930Z,1.60
2018-03-16T11:33:16.208Z,1.70
2018-03-16T11:35:44.498Z,1.40
2018-03-16T11:38:12.795Z,1.40
2018-03-16T11:40:41.841Z,1.30
2018-03-16T11:43:10.122Z,1.50
2018-03-16T11:45:38.430Z,1.73
2018-03-16T11:48:06.706Z,1.77
2018-03-16T11:50:36.230Z,1.70
2018-03-16T11:53:04.542Z,1.97
2018-03-16T11:55:32.817Z,1.70
2018-03-16T11:58:01.123Z,1.70
2018-03-16T12:00:29.418Z,1.80
2018-03-16T12:02:57.699Z,2.03
2018-03-16T12:05:26.017Z,2.27
2018-03-16T12:07:54.298Z,2.00
2018-03-16T12:10:22.580Z,2.23
2018-03-16T12:12:50.891Z,2.10
2018-03-16T12:15:19.171Z,2.30
2018-03-16T12:17:47.442Z,2.87
2018-03-16T12:20:16.507Z,2.43
2018-03-16T12:22:44.782Z,2.50
2018-03-16T12:25:13.058Z,2.43
2018-03-16T12:27:41.354Z,2.90
2018-03-16T12:30:09.634Z,2.73
2018-03-16T12:32:37.934Z,2.80
2018-03-16T12:35:06.974Z,2.80
2018-03-16T12:37:35.267Z,2.80
2018-03-16T12:40:03.563Z,3.20
2018-03-16T12:42:32.718Z,2.58
2018-03-16T12:45:01.002Z,2.50
2018-03-16T12:47:29.293Z,2.40
2018-03-16T12:49:57.561Z,2.60
2018-03-16T12:52:25.843Z,2.20
2018-03-16T12:54:54.145Z,2.77
2018-03-16T12:57:22.430Z,2.50
2018-03-16T12:59:50.711Z,3.30
2018-03-16T13:02:19.008Z,3.07
2018-03-16T13:04:47.299Z,2.97
2018-03-16T13:07:15.585Z,2.93
2018-03-16T13:09:43.896Z,3.60
2018-03-16T13:12:12.181Z,3.30
2018-03-16T13:14:40.462Z,3.50
2018-03-16T13:17:08.801Z,3.67
2018-03-16T13:19:37.035Z,3.53
2018-03-16T13:22:05.322Z,11.53
2018-03-16T13:24:33.614Z,4.43
2018-03-16T13:27:01.895Z,3.23
2018-03-16T13:29:30.184Z,3.00
2018-03-16T13:31:58.483Z,3.40
2018-03-16T13:34:26.768Z,3.50
2018-03-16T13:36:55.059Z,3.43
2018-03-16T13:39:23.345Z,3.70
2018-03-16T13:41:51.625Z,3.23
2018-03-16T13:44:19.913Z,2.90
2018-03-16T13:46:48.204Z,3.40
2018-03-16T13:49:17.266Z,3.20
2018-03-16T13:51:45.553Z,3.50
2018-03-16T13:54:14.343Z,3.72
2018-03-16T13:56:42.630Z,3.30
2018-03-16T13:59:10.917Z,3.20
2018-03-16T14:01:39.214Z,3.50
2018-03-16T14:04:08.255Z,3.43
2018-03-16T14:06:36.558Z,2.83
2018-03-16T14:09:04.869Z,2.70
2018-03-16T14:11:33.913Z,2.80
2018-03-16T14:14:02.204Z,3.23
2018-03-16T14:16:30.498Z,2.97
2018-03-16T14:18:58.778Z,2.70
2018-03-16T14:21:27.071Z,3.40
2018-03-16T14:23:55.375Z,2.80
2018-03-16T14:26:24.423Z,2.23
2018-03-16T14:28:52.719Z,2.30
2018-03-16T14:31:21.017Z,2.27
2018-03-16T14:33:49.302Z,2.20
2018-03-16T14:36:17.600Z,2.00
2018-03-16T14:38:46.650Z,2.17
2018-03-16T14:41:15.169Z,1.90
2018-03-16T14:43:43.446Z,2.17
2018-03-16T14:46:11.726Z,2.10
2018-03-16T14:48:40.030Z,2.20
2018-03-16T14:51:09.070Z,1.77
2018-03-16T14:53:37.362Z,1.67
2018-03-16T14:56:05.633Z,1.83
2018-03-16T14:58:33.915Z,1.63
2018-03-16T15:01:02.261Z,1.83
2018-03-16T15:03:31.314Z,2.00
2018-03-16T15:05:59.594Z,1.70
2018-03-16T15:08:27.884Z,1.63
2018-03-16T15:10:56.162Z,1.80
2018-03-16T15:13:24.442Z,1.63
2018-03-16T15:15:52.734Z,1.50
2018-03-16T15:18:21.009Z,1.50
2018-03-16T15:20:49.303Z,1.53
2018-03-16T15:23:17.641Z,1.50
2018-03-16T15:25:45.927Z,1.70
2018-03-16T15:28:14.990Z,1.70
2018-03-16T15:30:43.261Z,1.60
2018-03-16T15:33:12.560Z,1.33
2018-03-16T15:35:41.578Z,1.60
2018-03-16T15:38:09.833Z,1.30
2018-03-16T15:40:38.869Z,1.30
2018-03-16T15:43:07.116Z,1.40
2018-03-16T15:45:36.131Z,1.20
2018-03-16T15:48:04.400Z,1.33
2018-03-16T15:50:32.652Z,1.20
2018-03-16T15:53:00.898Z,1.20
2018-03-16T15:55:29.163Z,1.13
2018-03-16T15:57:57.404Z,1.23
2018-03-16T16:00:26.426Z,1.13
2018-03-16T16:02:54.696Z,1.00
2018-03-16T16:05:22.947Z,1.00
2018-03-16T16:07:51.204Z,1.27
2018-03-16T16:10:19.457Z,1.03
2018-03-16T16:12:47.729Z,1.43
2018-03-16T16:15:15.997Z,1.40
2018-03-16T16:17:45.016Z,1.45
2018-03-16T16:20:13.286Z,1.30
2018-03-16T16:22:41.546Z,1.30
2018-03-16T16:25:10.556Z,1.33
2018-03-16T16:27:38.828Z,1.77
2018-03-16T16:30:07.842Z,1.30
2018-03-16T16:32:37.754Z,1.50
2018-03-16T16:35:06.028Z,1.90
2018-03-16T16:37:35.372Z,1.56
2018-03-16T16:40:03.622Z,1.97
2018-03-16T16:42:32.039Z,2.00
2018-03-16T16:45:00.281Z,1.93
2018-03-16T16:47:28.533Z,1.97
2018-03-16T16:49:56.800Z,1.70
2018-03-16T16:52:25.041Z,2.10
2018-03-16T16:54:53.308Z,3.00
2018-03-16T16:57:22.304Z,2.60
2018-03-16T16:59:50.564Z,2.00
2018-03-16T17:02:19.573Z,2.13
2018-03-16T17:04:48.599Z,3.00
2018-03-16T17:07:16.853Z,3.47
2018-03-16T17:09:46.210Z,3.10
2018-03-16T17:12:15.149Z,3.30
2018-03-16T17:14:44.172Z,3.07
2018-03-16T17:17:12.417Z,3.27
2018-03-16T17:19:41.420Z,2.37
2018-03-16T17:22:10.696Z,2.80
2018-03-16T17:24:38.933Z,2.50
2018-03-16T17:27:07.180Z,3.50
2018-03-16T17:29:36.383Z,3.33
2018-03-16T17:32:05.385Z,3.03
2018-03-16T17:34:34.388Z,3.20
2018-03-16T17:37:03.886Z,3.60
2018-03-16T17:39:32.891Z,3.10
2018-03-16T17:42:01.896Z,3.00
2018-03-16T17:44:30.156Z,3.00
2018-03-16T17:46:59.176Z,3.60
2018-03-16T17:49:27.429Z,3.80
2018-03-16T17:51:56.457Z,4.45
2018-03-16T17:54:24.716Z,4.80
2018-03-16T17:56:53.742Z,5.17
2018-03-16T17:59:21.989Z,5.73
2018-03-16T18:01:51.017Z,4.10
2018-03-16T18:04:19.256Z,3.97
2018-03-16T18:06:47.512Z,3.57
2018-03-16T18:09:16.678Z,3.78
2018-03-16T18:11:44.917Z,4.07
2018-03-16T18:14:13.181Z,3.20
2018-03-16T18:16:41.428Z,2.90
2018-03-16T18:19:09.681Z,2.40
2018-03-16T18:21:38.709Z,2.37
2018-03-16T18:24:06.957Z,2.33
2018-03-16T18:26:35.976Z,2.47
2018-03-16T18:29:04.238Z,2.60
2018-03-16T18:31:33.248Z,2.50
2018-03-16T18:34:01.534Z,2.07
2018-03-16T18:36:29.736Z,2.33
2018-03-16T18:38:57.986Z,2.00
2018-03-16T18:41:26.229Z,2.17
2018-03-16T18:43:54.496Z,2.22
2018-03-16T18:46:22.736Z,2.13
2018-03-16T18:48:50.987Z,2.17
2018-03-16T18:51:20.007Z,2.30
2018-03-16T18:53:48.240Z,2.60
2018-03-16T18:56:16.500Z,2.27
2018-03-16T18:58:44.753Z,2.20
2018-03-16T19:01:13.010Z,2.10
2018-03-16T19:03:42.012Z,2.10
2018-03-16T19:06:10.409Z,2.20
2018-03-16T19:08:38.654Z,2.57
2018-03-16T19:11:07.662Z,1.85
2018-03-16T19:13:36.687Z,2.40
2018-03-16T19:16:04.929Z,2.40
2018-03-16T19:18:33.169Z,2.20
2018-03-16T19:21:01.420Z,2.23
2018-03-16T19:23:29.981Z,2.00
2018-03-16T19:25:59.001Z,2.10
2018-03-16T19:28:27.260Z,2.03
2018-03-16T19:30:56.282Z,2.10
2018-03-16T19:33:24.524Z,1.90
2018-03-16T19:35:52.780Z,1.87
2018-03-16T19:38:21.037Z,6.22
2018-03-16T19:40:49.283Z,24.53
2018-03-16T19:43:18.309Z,2.90
2018-03-16T19:45:46.552Z,2.37
2018-03-16T19:48:15.573Z,2.20
2018-03-16T19:50:43.833Z,2.03
2018-03-16T19:53:12.841Z,2.20
2018-03-16T19:55:41.850Z,2.07
2018-03-16T19:58:10.115Z,3.37
2018-03-16T20:00:39.178Z,2.40
2018-03-16T20:03:07.364Z,2.60
2018-03-16T20:05:35.616Z,3.10
2018-03-16T20:08:03.861Z,2.80
2018-03-16T20:10:32.113Z,3.90
2018-03-16T20:13:00.360Z,6.77
2018-03-16T20:15:28.617Z,7.53
2018-03-16T20:17:56.856Z,7.68
2018-03-16T20:20:25.124Z,6.87
2018-03-16T20:22:53.368Z,7.80
2018-03-16T20:25:21.615Z,6.53
2018-03-16T20:27:49.880Z,6.40
2018-03-16T20:30:18.133Z,4.07
2018-03-16T20:32:46.372Z,3.30
2018-03-16T20:35:14.621Z,3.13
2018-03-16T20:37:42.880Z,3.00
2018-03-16T20:40:11.124Z,2.73
2018-03-16T20:42:39.387Z,4.40
2018-03-16T20:45:07.652Z,4.37
2018-03-16T20:47:36.655Z,4.60
2018-03-16T20:50:05.699Z,4.60
2018-03-16T20:52:33.937Z,4.37
2018-03-16T20:55:02.947Z,4.40
2018-03-16T20:57:31.977Z,3.95
2018-03-16T21:00:00.224Z,3.80
2018-03-16T21:02:28.477Z,4.12
2018-03-16T21:04:57.485Z,3.67
2018-03-16T21:07:25.744Z,4.17
2018-03-16T21:09:53.980Z,3.45
2018-03-16T21:12:22.241Z,3.80
2018-03-16T21:14:50.507Z,3.80
2018-03-16T21:17:19.512Z,4.20
2018-03-16T21:19:47.768Z,4.90
2018-03-16T21:22:16.009Z,5.00
2018-03-16T21:24:44.257Z,5.07
2018-03-16T21:27:13.272Z,5.00
2018-03-16T21:29:41.510Z,4.50
2018-03-16T21:32:10.520Z,4.30
2018-03-16T21:34:39.520Z,4.40
2018-03-16T21:37:07.756Z,4.40
2018-03-16T21:39:36.889Z,4.32
2018-03-16T21:42:05.916Z,4.90
2018-03-16T21:44:34.162Z,5.50
2018-03-16T21:47:03.170Z,6.83
2018-03-16T21:49:32.226Z,6.50
2018-03-16T21:52:00.478Z,6.27
2018-03-16T21:54:28.767Z,5.80
2018-03-16T21:56:57.008Z,6.43
2018-03-16T21:59:26.033Z,7.40
2018-03-16T22:01:54.280Z,7.30
2018-03-16T22:04:23.285Z,6.57
2018-03-16T22:06:52.297Z,7.00
2018-03-16T22:09:20.548Z,7.50
2018-03-16T22:11:49.710Z,7.30
2018-03-16T22:14:17.982Z,5.97
2018-03-16T22:16:46.220Z,6.30
2018-03-16T22:19:15.241Z,6.93
2018-03-16T22:21:43.541Z,6.83
2018-03-16T22:24:11.764Z,6.67
2018-03-16T22:26:40.780Z,5.90
2018-03-16T22:29:09.800Z,6.07
2018-03-16T22:31:38.068Z,6.40
2018-03-16T22:34:06.305Z,6.37
2018-03-16T22:36:34.584Z,7.40
2018-03-16T22:39:02.905Z,6.60
2018-03-16T22:41:31.699Z,5.93
2018-03-16T22:43:59.960Z,6.65
2018-03-16T22:46:28.985Z,6.43
2018-03-16T22:48:57.245Z,6.70
2018-03-16T22:51:26.263Z,6.47
2018-03-16T22:53:54.511Z,6.05
2018-03-16T22:56:23.518Z,6.80
2018-03-16T22:58:52.542Z,8.20
2018-03-16T23:01:20.843Z,7.20
2018-03-16T23:03:49.062Z,7.87
2018-03-16T23:06:17.321Z,7.43
2018-03-16T23:08:45.573Z,6.40
2018-03-16T23:11:13.820Z,6.53
2018-03-16T23:13:43.865Z,6.53
2018-03-16T23:16:12.657Z,6.17
2018-03-16T23:18:40.905Z,6.30
2018-03-16T23:21:09.930Z,6.80
2018-03-16T23:23:38.168Z,5.80
2018-03-16T23:26:06.408Z,5.67
2018-03-16T23:28:34.657Z,5.73
2018-03-16T23:31:03.665Z,5.83
2018-03-16T23:33:31.991Z,6.67
2018-03-16T23:36:00.247Z,7.00
2018-03-16T23:38:28.501Z,7.50
2018-03-16T23:40:57.517Z,6.80
2018-03-16T23:43:25.755Z,6.50
2018-03-16T23:45:54.774Z,6.55
2018-03-16T23:48:24.612Z,6.57
2018-03-16T23:50:53.006Z,6.60
2018-03-16T23:53:21.262Z,6.90
2018-03-16T23:55:49.521Z,6.55
2018-03-16T23:58:18.542Z,6.53
